Time;durP1;ratioP1;P1;durP2;ratioP2;P2;SDS_P1;SDS_P2;PMS_P1;PMS_P2;Temp;Humidity;BMP_temperature;BMP_pressure;BME280_temperature;BME280_humidity;BME280_pressure;Samples;Min_cycle;Max_cycle;Signal;HPM_P1;HPM_P2
2021/03/02 00:00:05;;;;;;;9.23;7.10;;;6.50;85.50;;;;;;10559528;28;20239;-79
2021/03/02 00:05:09;;;;;;;8.23;6.90;;;6.50;85.70;;;;;;10558550;28;20192;-79
2021/03/02 00:10:13;;;;;;;8.80;7.10;;;6.50;86.00;;;;;;10541020;28;20276;-79
2021/03/02 00:15:15;;;;;;;6.60;5.90;;;6.50;87.00;;;;;;10536310;28;20265;-79
2021/03/02 00:20:20;;;;;;;6.80;6.20;;;6.40;86.30;;;;;;10540981;28;20215;-79
2021/03/02 00:25:26;;;;;;;7.93;7.03;;;6.40;86.70;;;;;;10535236;28;20195;-79
2021/03/02 00:30:28;;;;;;;6.93;5.93;;;6.40;87.00;;;;;;10535424;28;20208;-79
2021/03/02 00:35:30;;;;;;;7.10;6.40;;;6.30;87.00;;;;;;10538767;28;20680;-80
2021/03/02 00:40:32;;;;;;;7.00;6.30;;;6.30;87.60;;;;;;10536062;28;20219;-79
2021/03/02 00:45:34;;;;;;;7.17;6.23;;;6.30;87.60;;;;;;10537721;28;20196;-79
2021/03/02 00:50:36;;;;;;;8.40;7.60;;;6.20;87.90;;;;;;10540084;28;20298;-79
2021/03/02 00:55:38;;;;;;;7.60;6.33;;;6.20;87.90;;;;;;10516899;28;20201;-79
2021/03/02 01:00:40;;;;;;;8.10;6.43;;;6.20;87.80;;;;;;10532958;28;20231;-80
2021/03/02 01:05:45;;;;;;;8.60;7.30;;;6.10;88.30;;;;;;10530060;28;20698;-80
2021/03/02 01:10:54;;;;;;;7.90;6.37;;;6.10;88.70;;;;;;10546858;28;20215;-80
2021/03/02 01:16:00;;;;;;;8.53;7.07;;;6.10;88.70;;;;;;10548303;28;20211;-80
2021/03/02 01:21:02;;;;;;;6.73;6.10;;;6.10;88.60;;;;;;10546995;28;20215;-79
2021/03/02 01:26:04;;;;;;;8.40;6.80;;;6.00;88.90;;;;;;10543199;28;20208;-79
2021/03/02 01:31:06;;;;;;;8.30;6.73;;;5.90;88.70;;;;;;10545088;28;20227;-79
2021/03/02 01:36:08;;;;;;;8.17;6.83;;;5.80;89.50;;;;;;10551890;28;20208;-79
2021/03/02 01:41:10;;;;;;;7.10;6.50;;;5.70;90.10;;;;;;10555028;28;20212;-79
2021/03/02 01:46:14;;;;;;;7.40;6.60;;;5.70;90.20;;;;;;10549585;28;20282;-79
2021/03/02 01:51:16;;;;;;;8.80;6.80;;;5.70;90.40;;;;;;10550138;28;20243;-79
2021/03/02 01:56:18;;;;;;;7.23;6.00;;;5.70;90.30;;;;;;10552118;28;20613;-79
2021/03/02 02:01:20;;;;;;;6.93;6.23;;;5.70;90.30;;;;;;10546932;28;20327;-79
2021/03/02 02:06:28;;;;;;;10.47;8.03;;;5.70;90.40;;;;;;10523293;28;20718;-79
2021/03/02 02:11:47;;;;;;;8.50;7.30;;;5.70;90.50;;;;;;10544006;28;20575;-79
2021/03/02 02:16:52;;;;;;;8.30;7.10;;;5.60;90.50;;;;;;10540677;28;20210;-79
2021/03/02 02:22:04;;;;;;;8.10;7.30;;;5.60;90.50;;;;;;10541090;28;20211;-79
2021/03/02 02:27:07;;;;;;;9.30;6.43;;;5.60;90.70;;;;;;10546901;28;20203;-79
2021/03/02 02:32:10;;;;;;;7.60;6.80;;;5.60;90.50;;;;;;10553819;28;20242;-79
2021/03/02 02:37:12;;;;;;;7.57;6.80;;;5.60;90.60;;;;;;10535504;28;20726;-79
2021/03/02 02:42:16;;;;;;;9.37;7.77;;;5.60;90.60;;;;;;10553940;28;20215;-79
2021/03/02 02:47:19;;;;;;;8.20;7.00;;;5.50;90.70;;;;;;10551592;28;20203;-79
2021/03/02 02:52:21;;;;;;;9.30;7.57;;;5.50;90.80;;;;;;10550748;28;20687;-79
2021/03/02 02:57:26;;;;;;;8.87;7.97;;;5.50;90.70;;;;;;10551029;28;20336;-79
2021/03/02 03:02:30;;;;;;;10.70;7.60;;;5.40;90.70;;;;;;10548011;28;20222;-79
2021/03/02 03:07:35;;;;;;;8.07;6.90;;;5.30;90.60;;;;;;10546578;28;20582;-79
2021/03/02 03:12:42;;;;;;;8.73;7.83;;;5.20;90.90;;;;;;10545545;28;20614;-79
2021/03/02 03:17:47;;;;;;;7.80;6.90;;;5.20;91.10;;;;;;10544192;28;20196;-79
2021/03/02 03:22:49;;;;;;;9.83;8.13;;;5.20;91.20;;;;;;10538518;28;20820;-79
2021/03/02 03:27:55;;;;;;;8.57;7.67;;;5.10;91.00;;;;;;10545938;28;20288;-79
2021/03/02 03:32:59;;;;;;;8.70;7.80;;;5.10;91.30;;;;;;10546661;28;20691;-79
2021/03/02 03:38:01;;;;;;;9.50;8.30;;;5.10;91.30;;;;;;10548615;28;20517;-79
2021/03/02 03:43:04;;;;;;;9.33;7.80;;;5.00;91.40;;;;;;10548147;28;20223;-79
2021/03/02 03:48:07;;;;;;;9.20;8.33;;;5.00;91.60;;;;;;10546936;28;20207;-79
2021/03/02 03:53:11;;;;;;;10.33;8.50;;;5.00;91.60;;;;;;10543620;28;20267;-79
2021/03/02 03:58:18;;;;;;;8.73;7.90;;;5.00;91.40;;;;;;10543836;28;20204;-79
2021/03/02 04:03:23;;;;;;;10.40;8.80;;;5.00;91.70;;;;;;10544937;28;20215;-79
2021/03/02 04:08:25;;;;;;;9.40;8.50;;;5.00;91.60;;;;;;10547926;28;20215;-79
2021/03/02 04:13:28;;;;;;;12.10;9.80;;;4.90;91.60;;;;;;10548958;28;20220;-79
2021/03/02 04:18:30;;;;;;;8.90;8.00;;;4.90;91.80;;;;;;10547272;28;20694;-79
2021/03/02 04:23:31;;;;;;;11.73;9.20;;;4.90;91.80;;;;;;10541625;28;20200;-79
2021/03/02 04:28:34;;;;;;;9.50;8.47;;;4.90;92.10;;;;;;10545008;28;20203;-79
2021/03/02 04:33:35;;;;;;;9.73;8.70;;;4.80;91.80;;;;;;10543931;28;20557;-79
2021/03/02 04:38:37;;;;;;;10.17;9.07;;;4.80;91.90;;;;;;10550903;28;20278;-79
2021/03/02 04:43:39;;;;;;;10.60;8.43;;;4.80;91.90;;;;;;10552388;28;20723;-79
2021/03/02 04:48:41;;;;;;;12.63;10.70;;;4.70;91.80;;;;;;10545385;28;20207;-79
2021/03/02 04:53:42;;;;;;;11.13;9.40;;;4.70;91.90;;;;;;10538981;28;20220;-79
2021/03/02 04:58:45;;;;;;;11.03;9.37;;;4.70;91.90;;;;;;10528798;28;20254;-79
2021/03/02 05:03:46;;;;;;;10.73;9.50;;;4.70;91.90;;;;;;10525465;28;20198;-79
2021/03/02 05:08:48;;;;;;;11.73;10.00;;;4.70;91.80;;;;;;10523127;28;20211;-79
2021/03/02 05:13:50;;;;;;;11.83;9.80;;;4.70;92.00;;;;;;10526337;28;20572;-79
2021/03/02 05:18:52;;;;;;;10.60;9.30;;;4.70;91.80;;;;;;10520985;28;20216;-79
2021/03/02 05:23:53;;;;;;;11.70;9.47;;;4.60;91.90;;;;;;10522341;28;20713;-79
2021/03/02 05:28:57;;;;;;;10.73;9.47;;;4.60;91.90;;;;;;10552053;28;20748;-79
2021/03/02 05:33:59;;;;;;;10.23;9.10;;;4.60;92.10;;;;;;10545387;28;20234;-79
2021/03/02 05:39:00;;;;;;;10.60;9.50;;;4.60;92.00;;;;;;10558290;28;20303;-79
2021/03/02 05:44:03;;;;;;;11.10;9.50;;;4.60;91.90;;;;;;10555012;28;20199;-79
2021/03/02 05:49:05;;;;;;;12.70;9.67;;;4.60;92.00;;;;;;10538087;28;20273;-80
2021/03/02 05:54:08;;;;;;;11.70;10.57;;;4.50;92.00;;;;;;10539780;28;20207;-80
2021/03/02 05:59:10;;;;;;;14.27;11.70;;;4.50;92.00;;;;;;10533559;28;20223;-79
2021/03/02 06:04:15;;;;;;;12.67;11.30;;;4.50;92.10;;;;;;10555749;28;20258;-78
2021/03/02 06:09:19;;;;;;;13.43;11.70;;;4.40;92.00;;;;;;10561592;28;20218;-78
2021/03/02 06:14:23;;;;;;;13.37;11.40;;;4.40;92.20;;;;;;10517981;28;20231;-79
2021/03/02 06:19:41;;;;;;;14.13;11.60;;;4.30;92.30;;;;;;10532029;28;20223;-79
2021/03/02 06:24:42;;;;;;;15.07;11.30;;;4.20;92.50;;;;;;10534766;28;20246;-79
2021/03/02 06:30:08;;;;;;;11.77;10.57;;;4.20;92.60;;;;;;10542052;28;20223;-79
2021/03/02 06:35:12;;;;;;;12.60;11.30;;;4.30;92.70;;;;;;10551758;28;20215;-79
2021/03/02 06:40:15;;;;;;;13.30;11.07;;;4.30;92.80;;;;;;10538207;28;20239;-79
2021/03/02 06:45:17;;;;;;;15.57;12.30;;;4.40;92.80;;;;;;10542575;28;20290;-80
2021/03/02 06:50:23;;;;;;;13.03;11.13;;;4.40;92.80;;;;;;10548862;28;20222;-79
2021/03/02 06:55:27;;;;;;;12.47;10.63;;;4.40;92.60;;;;;;10555991;28;20216;-79
2021/03/02 07:00:33;;;;;;;12.13;10.90;;;4.40;92.70;;;;;;10540869;28;20232;-80
2021/03/02 07:05:35;;;;;;;17.47;11.90;;;4.40;92.80;;;;;;10551282;28;20198;-79
2021/03/02 07:10:36;;;;;;;15.37;11.33;;;4.40;93.00;;;;;;10543269;28;20241;-80
2021/03/02 07:15:41;;;;;;;15.23;13.00;;;4.50;93.00;;;;;;10533611;28;20302;-80
2021/03/02 07:20:48;;;;;;;15.30;13.70;;;4.50;92.90;;;;;;10527432;28;20220;-80
2021/03/02 07:25:51;;;;;;;14.83;13.27;;;4.50;92.90;;;;;;10521183;28;20196;-80
2021/03/02 07:30:54;;;;;;;14.93;12.50;;;4.60;93.10;;;;;;10530834;28;20228;-79
2021/03/02 07:35:57;;;;;;;25.83;13.60;;;4.70;93.10;;;;;;10555765;28;20631;-80
2021/03/02 07:40:58;;;;;;;15.70;13.70;;;4.80;93.10;;;;;;10544258;28;20356;-80
2021/03/02 07:46:02;;;;;;;17.40;14.43;;;4.90;92.90;;;;;;10520121;28;20196;-80
2021/03/02 07:51:18;;;;;;;42.60;12.60;;;5.10;92.90;;;;;;10536651;28;20239;-80
2021/03/02 07:56:24;;;;;;;24.17;14.40;;;5.20;92.80;;;;;;10514525;28;20195;-80
2021/03/02 08:01:30;;;;;;;21.00;14.00;;;5.30;92.90;;;;;;10513754;22;20258;-79
2021/03/02 08:06:35;;;;;;;18.80;14.73;;;5.40;92.80;;;;;;10456979;28;20224;-78
2021/03/02 08:11:37;;;;;;;18.60;15.33;;;5.50;92.80;;;;;;10436393;28;20233;-79
2021/03/02 08:16:53;;;;;;;18.43;14.93;;;5.70;92.90;;;;;;10426203;28;20194;-78
2021/03/02 08:21:55;;;;;;;17.70;15.30;;;5.80;92.70;;;;;;10423622;28;20228;-78
2021/03/02 08:26:56;;;;;;;18.80;15.10;;;5.90;92.80;;;;;;10424248;28;20209;-79
2021/03/02 08:31:59;;;;;;;17.10;14.73;;;6.10;92.70;;;;;;10418031;28;20224;-78
2021/03/02 08:37:01;;;;;;;16.40;14.13;;;6.30;92.90;;;;;;10425295;28;20657;-79
2021/03/02 08:42:06;;;;;;;16.63;13.83;;;6.40;92.20;;;;;;10426038;28;20627;-79
2021/03/02 08:47:08;;;;;;;22.20;15.57;;;6.60;92.10;;;;;;10423481;28;20192;-78
2021/03/02 08:52:10;;;;;;;17.23;14.30;;;6.80;91.60;;;;;;10425873;28;20228;-79
2021/03/02 08:57:11;;;;;;;18.97;15.87;;;7.00;91.20;;;;;;10426606;28;20564;-80
2021/03/02 09:02:14;;;;;;;18.53;14.80;;;7.20;91.40;;;;;;10423440;28;20214;-80
2021/03/02 09:07:22;;;;;;;17.50;14.87;;;7.40;91.00;;;;;;10408005;28;20600;-79
2021/03/02 09:12:24;;;;;;;20.00;14.60;;;7.60;91.00;;;;;;10420020;28;20631;-80
2021/03/02 09:17:27;;;;;;;16.97;14.13;;;7.70;91.00;;;;;;10423008;28;20205;-79
2021/03/02 09:22:30;;;;;;;19.87;15.47;;;8.00;91.20;;;;;;10426812;28;20248;-80
2021/03/02 09:27:34;;;;;;;16.60;13.80;;;8.20;91.20;;;;;;10437204;28;20922;-79
2021/03/02 09:32:38;;;;;;;20.73;15.20;;;8.40;90.70;;;;;;10441213;28;20608;-78
2021/03/02 09:37:43;;;;;;;18.10;12.77;;;8.60;90.40;;;;;;10433086;28;20208;-79
2021/03/02 09:42:53;;;;;;;16.33;13.30;;;8.80;90.10;;;;;;10418799;28;20226;-79
2021/03/02 09:48:00;;;;;;;19.20;14.10;;;9.00;89.70;;;;;;10432512;28;20196;-79
2021/03/02 09:53:12;;;;;;;12.00;10.23;;;9.30;89.50;;;;;;10435555;28;20228;-79
2021/03/02 09:58:17;;;;;;;14.00;12.00;;;9.50;87.70;;;;;;10426690;28;20202;-79
2021/03/02 10:03:22;;;;;;;16.27;13.90;;;9.70;87.70;;;;;;10431345;28;20216;-79
2021/03/02 10:08:34;;;;;;;16.20;12.10;;;9.90;86.00;;;;;;10423088;28;20291;-79
2021/03/02 10:13:37;;;;;;;20.53;14.13;;;10.00;85.40;;;;;;10417437;28;20224;-79
2021/03/02 10:18:59;;;;;;;18.80;13.40;;;10.00;84.80;;;;;;10435168;28;20201;-79
2021/03/02 10:24:02;;;;;;;16.50;13.40;;;10.00;85.10;;;;;;10420726;28;20228;-80
2021/03/02 10:29:06;;;;;;;16.47;13.70;;;9.90;86.20;;;;;;10419551;28;20229;-79
2021/03/02 10:34:10;;;;;;;14.60;12.97;;;9.90;87.00;;;;;;10429195;28;20221;-80
2021/03/02 10:39:13;;;;;;;15.40;13.30;;;9.80;88.40;;;;;;10429602;28;20201;-79
2021/03/02 10:44:16;;;;;;;15.50;13.40;;;9.80;88.20;;;;;;10422687;28;20190;-79
2021/03/02 10:49:19;;;;;;;16.07;14.20;;;9.80;87.50;;;;;;10401343;28;20232;-79
2021/03/02 10:54:21;;;;;;;16.13;13.67;;;9.80;88.50;;;;;;10417220;28;20229;-79
2021/03/02 10:59:22;;;;;;;16.10;13.17;;;9.80;88.60;;;;;;10428911;28;20328;-79
2021/03/02 11:04:25;;;;;;;15.43;13.30;;;9.80;89.00;;;;;;10413624;28;20252;-79
2021/03/02 11:09:26;;;;;;;16.53;13.80;;;9.70;88.70;;;;;;10431828;28;20220;-81
2021/03/02 11:14:28;;;;;;;16.37;12.50;;;9.80;89.30;;;;;;10420483;28;20456;-79
2021/03/02 11:19:30;;;;;;;15.70;13.93;;;9.80;89.90;;;;;;10412578;28;20229;-81
2021/03/02 11:24:32;;;;;;;15.07;13.20;;;9.80;88.50;;;;;;10410124;28;20630;-80
2021/03/02 11:29:35;;;;;;;16.90;14.30;;;9.90;89.40;;;;;;10411270;28;20233;-79
2021/03/02 11:34:38;;;;;;;19.00;15.00;;;9.90;90.00;;;;;;10407954;28;20261;-81
2021/03/02 11:39:39;;;;;;;19.50;15.10;;;10.00;89.30;;;;;;10427878;28;20237;-79
2021/03/02 11:44:41;;;;;;;19.00;15.23;;;10.00;88.00;;;;;;10429007;28;20674;-80
2021/03/02 11:49:43;;;;;;;20.47;15.73;;;10.10;88.40;;;;;;10415893;28;20805;-79
2021/03/02 11:54:45;;;;;;;15.50;12.80;;;10.20;86.50;;;;;;10423769;28;20708;-79
2021/03/02 11:59:47;;;;;;;16.33;13.40;;;10.30;87.20;;;;;;10400733;28;20621;-79
2021/03/02 12:04:49;;;;;;;14.97;12.47;;;10.50;85.70;;;;;;10406751;28;20206;-81
2021/03/02 12:09:51;;;;;;;17.30;12.77;;;10.60;84.80;;;;;;10393484;28;20237;-79
2021/03/02 12:14:53;;;;;;;17.83;13.53;;;10.70;85.70;;;;;;10392739;28;20597;-80
2021/03/02 12:19:55;;;;;;;17.10;12.67;;;10.80;82.50;;;;;;10409626;28;20753;-80
2021/03/02 12:24:57;;;;;;;18.60;11.80;;;11.00;81.20;;;;;;10414463;28;20220;-82
2021/03/02 12:29:58;;;;;;;15.10;12.40;;;11.10;82.00;;;;;;10420889;28;20248;-81
2021/03/02 12:35:01;;;;;;;17.80;13.17;;;11.20;81.30;;;;;;10422218;28;20229;-82
2021/03/02 12:40:07;;;;;;;14.77;11.90;;;11.20;80.20;;;;;;10429412;28;20213;-80
2021/03/02 12:45:10;;;;;;;17.53;12.57;;;11.30;78.70;;;;;;10420436;28;20205;-80
2021/03/02 12:50:14;;;;;;;15.57;12.67;;;11.30;79.20;;;;;;10413816;28;20313;-78
2021/03/02 12:55:16;;;;;;;16.50;12.63;;;11.40;79.60;;;;;;10399564;28;20222;-79
2021/03/02 13:00:19;;;;;;;15.80;11.70;;;11.40;79.30;;;;;;10402998;28;20233;-80
2021/03/02 13:05:23;;;;;;;15.70;11.80;;;11.30;78.90;;;;;;10387329;28;20202;-81
2021/03/02 13:10:25;;;;;;;16.00;11.03;;;11.40;77.30;;;;;;10404531;28;20222;-81
2021/03/02 13:15:27;;;;;;;15.83;10.67;;;11.50;76.40;;;;;;10405454;28;20228;-80
2021/03/02 13:20:29;;;;;;;18.40;12.27;;;11.60;75.40;;;;;;10403817;28;20222;-81
2021/03/02 13:25:31;;;;;;;14.70;10.87;;;11.70;76.40;;;;;;10407159;28;20281;-78
2021/03/02 13:30:35;;;;;;;13.97;10.30;;;11.70;76.50;;;;;;10432712;28;20213;-80
2021/03/02 13:35:46;;;;;;;15.63;11.27;;;11.70;76.80;;;;;;10430352;28;20226;-80
2021/03/02 13:40:52;;;;;;;19.50;12.10;;;11.70;78.10;;;;;;10399685;28;20304;-79
2021/03/02 13:45:56;;;;;;;15.50;10.63;;;11.60;76.60;;;;;;10416527;28;20194;-80
2021/03/02 13:51:00;;;;;;;14.20;10.40;;;11.70;76.10;;;;;;10421443;28;20295;-80
2021/03/02 13:56:03;;;;;;;15.27;11.13;;;11.80;75.70;;;;;;10416103;28;20247;-80
2021/03/02 14:01:04;;;;;;;15.50;11.47;;;11.90;75.40;;;;;;10471491;22;20702;-80
2021/03/02 14:06:08;;;;;;;16.50;10.53;;;11.90;78.20;;;;;;10531128;28;20267;-80
2021/03/02 14:11:10;;;;;;;14.73;10.60;;;11.90;75.40;;;;;;10512664;28;20223;-80
2021/03/02 14:16:13;;;;;;;18.90;12.13;;;12.00;74.20;;;;;;10526753;28;20304;-80
2021/03/02 14:21:15;;;;;;;18.20;11.20;;;12.10;74.40;;;;;;10499512;28;20220;-80
2021/03/02 14:26:17;;;;;;;13.57;10.73;;;12.10;73.90;;;;;;10521651;28;20696;-80
2021/03/02 14:31:19;;;;;;;16.23;10.77;;;12.20;72.20;;;;;;10530387;28;20561;-80
2021/03/02 14:36:22;;;;;;;18.37;11.60;;;12.40;72.60;;;;;;10530816;28;20264;-80
2021/03/02 14:41:29;;;;;;;15.53;10.03;;;12.50;71.70;;;;;;10530109;28;20978;-80
2021/03/02 14:46:37;;;;;;;15.03;10.03;;;12.60;72.50;;;;;;10529499;28;20213;-80
2021/03/02 14:51:42;;;;;;;16.97;10.47;;;12.60;71.80;;;;;;10538957;28;20306;-80
2021/03/02 14:56:44;;;;;;;14.87;10.90;;;12.50;73.90;;;;;;10539806;28;20223;-80
2021/03/02 15:01:46;;;;;;;15.87;9.90;;;12.50;71.70;;;;;;10537962;28;20254;-80
2021/03/02 15:06:49;;;;;;;16.70;10.47;;;12.40;71.30;;;;;;10511472;28;20200;-80
2021/03/02 15:11:51;;;;;;;16.27;10.67;;;12.40;72.50;;;;;;10505553;28;20243;-80
2021/03/02 15:16:53;;;;;;;13.20;9.93;;;12.40;71.60;;;;;;10534114;28;20206;-80
2021/03/02 15:21:56;;;;;;;13.63;10.13;;;12.30;73.20;;;;;;10528860;28;20628;-80
2021/03/02 15:26:59;;;;;;;12.37;8.70;;;12.30;73.90;;;;;;10536261;28;20202;-80
2021/03/02 15:32:03;;;;;;;17.77;10.30;;;12.30;74.30;;;;;;10536822;28;20314;-79
2021/03/02 15:37:09;;;;;;;13.40;9.60;;;12.30;75.30;;;;;;10545184;28;20203;-80
2021/03/02 15:42:12;;;;;;;14.67;10.90;;;12.30;75.30;;;;;;10549466;28;20216;-80
2021/03/02 15:47:14;;;;;;;14.70;9.70;;;12.20;75.30;;;;;;10550309;28;20198;-80
2021/03/02 15:52:16;;;;;;;13.47;9.40;;;12.20;77.60;;;;;;10545244;28;20258;-80
2021/03/02 15:57:18;;;;;;;13.80;8.97;;;12.00;78.70;;;;;;10545233;28;20200;-80
2021/03/02 16:02:24;;;;;;;11.90;9.30;;;11.90;76.80;;;;;;10544485;28;20254;-80
2021/03/02 16:07:29;;;;;;;13.50;9.13;;;11.90;76.30;;;;;;10540998;28;20239;-80
2021/03/02 16:12:31;;;;;;;23.23;9.03;;;12.00;77.30;;;;;;10539982;28;20212;-80
2021/03/02 16:17:37;;;;;;;15.30;10.67;;;11.90;76.50;;;;;;10523104;28;20204;-80
2021/03/02 16:22:42;;;;;;;11.97;9.37;;;11.90;78.70;;;;;;10544753;28;20224;-80
2021/03/02 16:27:45;;;;;;;12.80;8.87;;;11.80;76.80;;;;;;10560706;28;20239;-80
2021/03/02 16:32:47;;;;;;;11.30;7.77;;;11.70;78.50;;;;;;10565805;28;20319;-80
2021/03/02 16:37:51;;;;;;;13.30;10.13;;;11.60;78.50;;;;;;10532561;28;20776;-80
2021/03/02 16:42:53;;;;;;;17.83;9.23;;;11.60;78.50;;;;;;10553110;28;20219;-80
2021/03/02 16:47:56;;;;;;;16.47;9.07;;;11.60;74.50;;;;;;10536907;28;20202;-80
2021/03/02 16:53:00;;;;;;;15.37;10.17;;;11.70;75.30;;;;;;10539297;28;20223;-80
2021/03/02 16:58:11;;;;;;;15.10;9.40;;;11.70;75.50;;;;;;10554809;28;20260;-80
2021/03/02 17:03:20;;;;;;;11.97;8.70;;;11.70;75.00;;;;;;10543025;28;20669;-79
2021/03/02 17:08:24;;;;;;;12.83;9.67;;;11.60;74.80;;;;;;10544054;28;20731;-79
2021/03/02 17:13:26;;;;;;;14.50;9.47;;;11.50;75.60;;;;;;10546778;28;20211;-79
2021/03/02 17:18:27;;;;;;;11.83;8.87;;;11.40;75.20;;;;;;10544320;28;20642;-80
2021/03/02 17:23:32;;;;;;;14.73;10.80;;;11.20;75.40;;;;;;10543887;28;20257;-80
2021/03/02 17:28:34;;;;;;;13.37;10.20;;;11.10;74.90;;;;;;10543687;28;20648;-80
2021/03/02 17:33:36;;;;;;;15.07;10.03;;;11.00;75.20;;;;;;10545949;28;20219;-80
2021/03/02 17:38:38;;;;;;;20.07;15.63;;;10.90;75.60;;;;;;10540192;28;20291;-80
2021/03/02 17:43:40;;;;;;;23.77;18.23;;;10.80;75.90;;;;;;10515725;28;20351;-79
2021/03/02 17:48:41;;;;;;;18.37;14.77;;;10.60;76.30;;;;;;10512698;28;20217;-80
2021/03/02 17:53:43;;;;;;;14.47;10.83;;;10.50;76.40;;;;;;10530957;28;20634;-79
2021/03/02 17:58:45;;;;;;;13.63;11.60;;;10.40;76.80;;;;;;10550455;28;20236;-80
2021/03/02 18:03:47;;;;;;;16.37;13.17;;;10.30;77.00;;;;;;10553427;28;20223;-80
2021/03/02 18:08:49;;;;;;;18.87;12.13;;;10.20;77.10;;;;;;10548308;28;20195;-79
2021/03/02 18:13:51;;;;;;;29.70;22.00;;;10.10;77.70;;;;;;10544149;28;20299;-81
2021/03/02 18:18:52;;;;;;;22.40;14.07;;;10.00;78.30;;;;;;10499199;28;20229;-81
2021/03/02 18:23:55;;;;;;;18.10;14.20;;;10.00;79.00;;;;;;10516044;28;20215;-80
2021/03/02 18:28:56;;;;;;;23.87;13.93;;;9.90;81.20;;;;;;10533163;28;20208;-80
2021/03/02 18:34:00;;;;;;;19.07;13.40;;;9.80;82.10;;;;;;10534275;28;20222;-80
2021/03/02 18:39:05;;;;;;;20.30;14.17;;;9.70;83.50;;;;;;10527075;28;20218;-80
2021/03/02 18:44:07;;;;;;;29.23;21.33;;;9.60;83.60;;;;;;10550476;28;20220;-80
2021/03/02 18:49:09;;;;;;;25.37;16.97;;;9.60;84.30;;;;;;10543129;28;20309;-80
2021/03/02 18:54:13;;;;;;;29.57;22.60;;;9.50;85.50;;;;;;10537670;28;20219;-80
2021/03/02 18:59:14;;;;;;;67.87;46.47;;;9.50;85.20;;;;;;10533860;28;20222;-80
2021/03/02 19:04:16;;;;;;;27.73;18.10;;;9.40;85.70;;;;;;10534987;28;20231;-80
2021/03/02 19:09:18;;;;;;;22.40;17.03;;;9.40;85.50;;;;;;10546006;28;20207;-80
2021/03/02 19:14:20;;;;;;;22.53;15.63;;;9.30;85.40;;;;;;10540117;28;20211;-80
2021/03/02 19:19:21;;;;;;;21.47;16.33;;;9.20;85.20;;;;;;10545949;28;20203;-80
2021/03/02 19:24:24;;;;;;;22.00;15.33;;;9.20;85.50;;;;;;10536837;28;20249;-80
2021/03/02 19:29:25;;;;;;;24.40;16.70;;;9.20;85.40;;;;;;10544259;28;20210;-80
2021/03/02 19:34:27;;;;;;;23.77;15.20;;;9.10;85.60;;;;;;10537015;28;20258;-80
2021/03/02 19:39:29;;;;;;;22.20;13.80;;;9.10;85.40;;;;;;10521180;28;20698;-80
2021/03/02 19:44:31;;;;;;;20.40;16.70;;;9.00;85.90;;;;;;10522858;28;20882;-79
2021/03/02 19:49:32;;;;;;;21.37;15.93;;;9.00;86.30;;;;;;10529048;28;20197;-80
2021/03/02 19:54:35;;;;;;;20.07;14.57;;;8.90;86.20;;;;;;10539290;28;20207;-80
2021/03/02 19:59:37;;;;;;;24.00;16.70;;;8.90;86.70;;;;;;10534096;28;20277;-80
2021/03/02 20:04:38;;;;;;;25.17;16.97;;;8.80;86.90;;;;;;10530724;28;20199;-81
2021/03/02 20:09:41;;;;;;;21.80;16.43;;;8.70;87.20;;;;;;10526285;28;20687;-80
2021/03/02 20:14:45;;;;;;;20.90;14.90;;;8.70;87.80;;;;;;10492987;28;20219;-81
2021/03/02 20:19:49;;;;;;;19.80;15.90;;;8.60;88.20;;;;;;10524666;28;20231;-80
2021/03/02 20:24:51;;;;;;;21.70;16.23;;;8.50;88.60;;;;;;10496197;28;20196;-82
2021/03/02 20:29:53;;;;;;;31.43;20.77;;;8.50;89.10;;;;;;10520091;28;20683;-80
2021/03/02 20:34:55;;;;;;;23.30;17.67;;;8.50;89.30;;;;;;10501965;28;20213;-82
2021/03/02 20:39:57;;;;;;;21.80;17.00;;;8.60;89.60;;;;;;10538741;28;20762;-84
2021/03/02 20:44:59;;;;;;;22.73;16.03;;;8.60;89.80;;;;;;10542190;27;20197;-81
2021/03/02 20:50:00;;;;;;;21.70;16.27;;;8.50;90.00;;;;;;10515160;28;20246;-81
2021/03/02 20:55:03;;;;;;;18.60;14.90;;;8.50;90.00;;;;;;10489855;28;20238;-80
2021/03/02 21:00:07;;;;;;;18.53;14.40;;;8.50;90.10;;;;;;10514120;28;20338;-80
2021/03/02 21:05:10;;;;;;;19.63;13.77;;;8.50;90.20;;;;;;10493418;28;20283;-79
2021/03/02 21:10:14;;;;;;;18.90;14.70;;;8.50;90.30;;;;;;10516977;28;20219;-80
2021/03/02 21:15:18;;;;;;;22.03;14.97;;;8.40;90.40;;;;;;10535945;28;20229;-80
2021/03/02 21:20:19;;;;;;;18.83;14.17;;;8.30;90.70;;;;;;10534225;28;20215;-81
2021/03/02 21:25:22;;;;;;;20.77;15.20;;;8.30;90.80;;;;;;10512739;28;20196;-80
2021/03/02 21:30:24;;;;;;;19.10;14.17;;;8.30;91.10;;;;;;10492420;28;20234;-82
2021/03/02 21:35:26;;;;;;;17.90;13.53;;;8.30;91.20;;;;;;10513431;28;20226;-80
2021/03/02 21:40:28;;;;;;;22.20;15.00;;;8.30;91.10;;;;;;10498159;28;20726;-83
2021/03/02 21:45:30;;;;;;;19.93;14.47;;;8.20;91.20;;;;;;10525346;28;20561;-79
2021/03/02 21:50:31;;;;;;;21.43;16.67;;;8.10;91.40;;;;;;10527384;28;20227;-78
2021/03/02 21:55:34;;;;;;;18.43;16.30;;;8.10;91.70;;;;;;10518181;28;20243;-79
2021/03/02 22:00:35;;;;;;;22.27;15.90;;;8.00;91.60;;;;;;10521765;28;20224;-78
2021/03/02 22:05:37;;;;;;;19.77;15.40;;;7.90;91.90;;;;;;10528839;28;20196;-78
2021/03/02 22:10:39;;;;;;;22.40;15.70;;;7.90;92.00;;;;;;10532380;28;20231;-79
2021/03/02 22:15:41;;;;;;;22.30;16.13;;;7.80;92.20;;;;;;10536119;28;20247;-79
2021/03/02 22:20:42;;;;;;;21.30;16.80;;;7.80;92.20;;;;;;10551261;28;20224;-78
2021/03/02 22:25:45;;;;;;;19.53;16.37;;;7.80;92.20;;;;;;10530792;28;20241;-78
2021/03/02 22:30:47;;;;;;;23.20;16.37;;;7.80;92.20;;;;;;10529878;28;20224;-79
2021/03/02 22:35:49;;;;;;;31.50;21.20;;;7.80;92.20;;;;;;10530445;28;20238;-79
2021/03/02 22:40:52;;;;;;;24.07;16.30;;;7.70;92.30;;;;;;10532717;28;20269;-79
2021/03/02 22:45:53;;;;;;;26.03;16.97;;;7.70;92.20;;;;;;10537218;28;20211;-79
2021/03/02 22:50:55;;;;;;;23.60;15.03;;;7.60;92.20;;;;;;10544261;28;20295;-80
2021/03/02 22:55:57;;;;;;;23.67;16.93;;;7.60;92.30;;;;;;10572019;28;20346;-80
2021/03/02 23:00:59;;;;;;;20.77;16.93;;;7.50;92.20;;;;;;10549630;28;20302;-79
2021/03/02 23:06:00;;;;;;;21.30;14.10;;;7.50;92.30;;;;;;10545066;28;20203;-80
2021/03/02 23:11:03;;;;;;;22.47;16.70;;;7.40;92.40;;;;;;10535852;28;20878;-79
2021/03/02 23:16:04;;;;;;;24.50;17.17;;;7.40;92.30;;;;;;10541580;28;20386;-80
2021/03/02 23:21:06;;;;;;;24.73;17.33;;;7.40;92.30;;;;;;10544852;28;20295;-80
2021/03/02 23:26:08;;;;;;;22.40;17.33;;;7.30;92.70;;;;;;10547618;28;20203;-80
2021/03/02 23:31:11;;;;;;;20.57;16.77;;;7.30;92.20;;;;;;10548710;28;20220;-80
2021/03/02 23:36:13;;;;;;;24.13;18.60;;;7.30;92.30;;;;;;10545158;28;20216;-79
2021/03/02 23:41:17;;;;;;;23.57;18.53;;;7.30;92.30;;;;;;10548186;28;20223;-80
2021/03/02 23:46:18;;;;;;;23.27;18.77;;;7.30;92.30;;;;;;10552680;28;20275;-80
2021/03/02 23:51:20;;;;;;;22.00;17.20;;;7.30;92.30;;;;;;10559025;28;20216;-80
2021/03/02 23:56:22;;;;;;;28.77;18.67;;;7.30;92.40;;;;;;10563874;28;20255;-80
